Time;durP1;ratioP1;P1;durP2;ratioP2;P2;SDS_P1;SDS_P2;PMS_P1;PMS_P2;Temp;Humidity;BMP_temperature;BMP_pressure;BME280_temperature;BME280_humidity;BME280_pressure;Samples;Min_cycle;Max_cycle;Signal;HPM_P1;HPM_P2
2023/01/14 00:01:42;;;;;;;44.28;21.83;;;;;;;;;;4975312;28;20297;-45
2023/01/14 00:04:09;;;;;;;41.63;22.57;;;;;;;;;;4974917;28;20695;-43
2023/01/14 00:06:37;;;;;;;26.90;15.97;;;;;;;;;;4975107;28;20214;-44
2023/01/14 00:09:11;;;;;;;31.17;18.03;;;;;;;;;;4975296;28;20241;-43
2023/01/14 00:11:50;;;;;;;32.80;18.87;;;;;;;;;;4975028;28;20190;-44
2023/01/14 00:14:21;;;;;;;30.83;17.23;;;;;;;;;;4974992;28;20718;-46
2023/01/14 00:16:52;;;;;;;31.17;16.23;;;;;;;;;;4974993;28;20216;-43
2023/01/14 00:19:20;;;;;;;34.17;18.60;;;;;;;;;;4975019;28;20211;-43
2023/01/14 00:21:48;;;;;;;27.87;15.87;;;;;;;;;;4974825;28;20679;-44
2023/01/14 00:24:18;;;;;;;33.60;17.67;;;;;;;;;;4975053;28;20249;-43
2023/01/14 00:26:49;;;;;;;27.20;16.47;;;;;;;;;;4975082;28;20207;-43
2023/01/14 00:29:22;;;;;;;34.30;18.73;;;;;;;;;;4975215;28;20179;-43
2023/01/14 00:31:49;;;;;;;28.23;15.13;;;;;;;;;;4974257;28;20194;-43
2023/01/14 00:34:19;;;;;;;34.90;16.77;;;;;;;;;;4973864;28;20643;-44
2023/01/14 00:36:46;;;;;;;26.93;15.73;;;;;;;;;;4974952;28;20573;-43
2023/01/14 00:39:16;;;;;;;26.00;16.33;;;;;;;;;;4977836;28;20210;-43
2023/01/14 00:41:43;;;;;;;26.70;16.43;;;;;;;;;;4978657;28;20214;-44
2023/01/14 00:44:11;;;;;;;26.65;15.68;;;;;;;;;;4978399;28;20234;-43
2023/01/14 00:46:39;;;;;;;26.70;15.77;;;;;;;;;;4977399;28;20203;-47
2023/01/14 00:49:09;;;;;;;30.30;16.67;;;;;;;;;;4977414;28;20936;-44
2023/01/14 00:51:36;;;;;;;27.43;15.47;;;;;;;;;;4977366;28;20206;-44
2023/01/14 00:54:03;;;;;;;27.00;16.60;;;;;;;;;;4977475;28;20546;-43
2023/01/14 00:56:31;;;;;;;24.57;16.10;;;;;;;;;;4977295;28;20258;-43
2023/01/14 00:58:59;;;;;;;28.67;17.57;;;;;;;;;;4977577;28;20206;-43
2023/01/14 01:01:26;;;;;;;26.73;15.63;;;;;;;;;;4978325;28;20230;-43
2023/01/14 01:03:55;;;;;;;27.77;16.07;;;;;;;;;;4977046;28;20242;-43
2023/01/14 01:06:25;;;;;;;28.08;15.75;;;;;;;;;;4978196;28;20218;-46
2023/01/14 01:09:00;;;;;;;24.02;15.25;;;;;;;;;;4978181;28;20210;-46
2023/01/14 01:11:27;;;;;;;26.80;16.53;;;;;;;;;;4977942;28;20636;-45
2023/01/14 01:13:57;;;;;;;21.40;14.00;;;;;;;;;;4976956;28;20284;-44
2023/01/14 01:16:24;;;;;;;32.70;19.60;;;;;;;;;;4977080;28;20203;-43
2023/01/14 01:18:54;;;;;;;27.13;15.40;;;;;;;;;;4977772;28;20222;-43
2023/01/14 01:21:23;;;;;;;27.87;15.30;;;;;;;;;;4961025;28;20292;-43
2023/01/14 01:23:51;;;;;;;30.47;19.30;;;;;;;;;;4977654;28;20297;-43
2023/01/14 01:26:23;;;;;;;28.83;15.23;;;;;;;;;;4976679;28;20210;-43
2023/01/14 01:28:56;;;;;;;24.57;15.20;;;;;;;;;;4977926;28;20195;-42
2023/01/14 01:31:26;;;;;;;24.77;14.57;;;;;;;;;;4976606;28;20580;-43
2023/01/14 01:33:53;;;;;;;31.53;16.17;;;;;;;;;;4977558;28;20210;-44
2023/01/14 01:36:23;;;;;;;29.30;15.60;;;;;;;;;;4977701;28;20219;-43
2023/01/14 01:38:50;;;;;;;28.83;15.00;;;;;;;;;;4977588;28;20214;-43
2023/01/14 01:41:25;;;;;;;27.33;15.63;;;;;;;;;;4977309;28;20210;-43
2023/01/14 01:44:07;;;;;;;24.90;15.47;;;;;;;;;;4977524;28;20226;-44
2023/01/14 01:46:36;;;;;;;27.20;16.10;;;;;;;;;;4977386;28;20237;-43
2023/01/14 01:49:09;;;;;;;30.97;16.77;;;;;;;;;;4976698;28;20560;-43
2023/01/14 01:52:08;;;;;;;29.23;17.80;;;;;;;;;;4976415;28;20214;-45
2023/01/14 01:55:08;;;;;;;23.50;15.73;;;;;;;;;;4973654;28;20211;-44
2023/01/14 01:57:36;;;;;;;26.57;15.93;;;;;;;;;;4939852;29;20320;-43
2023/01/14 02:00:07;;;;;;;28.30;16.27;;;;;;;;;;4939852;29;20550;-43
2023/01/14 02:02:45;;;;;;;35.70;16.83;;;;;;;;;;4955835;29;20230;-42
2023/01/14 02:05:12;;;;;;;26.10;15.10;;;;;;;;;;4955892;29;20219;-47
2023/01/14 02:07:39;;;;;;;25.60;14.13;;;;;;;;;;4939842;29;20286;-43
2023/01/14 02:10:07;;;;;;;27.43;14.37;;;;;;;;;;4939876;29;20251;-43
2023/01/14 02:12:54;;;;;;;26.30;13.87;;;;;;;;;;4939698;29;20539;-43
2023/01/14 02:15:40;;;;;;;26.77;15.70;;;;;;;;;;4955786;29;20211;-43
2023/01/14 02:18:21;;;;;;;28.73;15.60;;;;;;;;;;4939661;29;20274;-42
2023/01/14 02:21:08;;;;;;;35.23;22.40;;;;;;;;;;4923991;29;20652;-43
2023/01/14 02:23:37;;;;;;;28.87;16.70;;;;;;;;;;4939538;29;20676;-43
2023/01/14 02:26:19;;;;;;;24.37;14.50;;;;;;;;;;4955513;29;20211;-43
2023/01/14 02:29:25;;;;;;;25.23;14.03;;;;;;;;;;4939521;29;20187;-43
2023/01/14 02:31:56;;;;;;;24.00;13.80;;;;;;;;;;4939354;29;20218;-47
2023/01/14 02:34:43;;;;;;;24.73;13.70;;;;;;;;;;4952790;28;20211;-43
2023/01/14 02:37:16;;;;;;;32.77;14.23;;;;;;;;;;4975435;28;20215;-43
2023/01/14 02:40:08;;;;;;;25.37;14.13;;;;;;;;;;4959920;28;20191;-43
2023/01/14 02:45:42;;;;;;;27.30;14.37;;;;;;;;;;4975681;28;20258;-43
2023/01/14 02:48:10;;;;;;;29.77;16.57;;;;;;;;;;4975266;28;20654;-43
2023/01/14 02:50:38;;;;;;;25.83;15.33;;;;;;;;;;4959640;28;20237;-43
2023/01/14 02:53:10;;;;;;;28.27;15.47;;;;;;;;;;4959443;28;20265;-43
2023/01/14 02:55:38;;;;;;;27.53;15.23;;;;;;;;;;4975129;28;20235;-43
2023/01/14 02:58:46;;;;;;;26.00;14.40;;;;;;;;;;4975090;28;20215;-45
2023/01/14 03:01:26;;;;;;;25.50;14.20;;;;;;;;;;4975108;28;20199;-43
2023/01/14 03:04:00;;;;;;;26.67;13.80;;;;;;;;;;4959153;28;20226;-43
2023/01/14 03:06:44;;;;;;;27.13;15.00;;;;;;;;;;4974950;28;20302;-45
2023/01/14 03:09:12;;;;;;;21.73;13.53;;;;;;;;;;4959124;28;20666;-43
2023/01/14 03:11:44;;;;;;;26.67;15.30;;;;;;;;;;4975812;28;20218;-44
2023/01/14 03:14:38;;;;;;;31.43;16.27;;;;;;;;;;4974813;28;20218;-45
2023/01/14 03:17:11;;;;;;;27.87;15.57;;;;;;;;;;4974789;28;20190;-45
2023/01/14 03:19:41;;;;;;;27.13;15.53;;;;;;;;;;4959006;28;20226;-42
2023/01/14 03:22:09;;;;;;;29.80;16.27;;;;;;;;;;4974829;28;20321;-43
2023/01/14 03:24:45;;;;;;;23.80;13.80;;;;;;;;;;4975726;28;20234;-42
2023/01/14 03:27:23;;;;;;;34.33;15.53;;;;;;;;;;4959388;28;20623;-45
2023/01/14 03:30:01;;;;;;;25.10;14.20;;;;;;;;;;4975423;28;20679;-45
2023/01/14 03:32:38;;;;;;;23.97;13.63;;;;;;;;;;4959187;28;20257;-43
2023/01/14 03:35:09;;;;;;;25.37;13.90;;;;;;;;;;4974614;28;20214;-44
2023/01/14 03:37:39;;;;;;;27.77;14.97;;;;;;;;;;4974673;28;20597;-44
2023/01/14 03:40:08;;;;;;;21.93;14.33;;;;;;;;;;4974252;28;20206;-43
2023/01/14 03:42:45;;;;;;;26.50;14.73;;;;;;;;;;4975220;28;20203;-43
2023/01/14 03:45:42;;;;;;;30.80;15.10;;;;;;;;;;4974536;28;20210;-44
2023/01/14 03:48:09;;;;;;;27.67;15.20;;;;;;;;;;4975158;28;20289;-43
2023/01/14 03:50:58;;;;;;;25.17;14.23;;;;;;;;;;4974523;28;20665;-43
2023/01/14 03:53:36;;;;;;;27.07;13.60;;;;;;;;;;4975112;28;20640;-43
2023/01/14 03:56:30;;;;;;;22.90;12.17;;;;;;;;;;4974146;28;20694;-45
2023/01/14 03:59:04;;;;;;;25.90;12.82;;;;;;;;;;4974525;28;20247;-44
2023/01/14 04:01:39;;;;;;;21.73;12.73;;;;;;;;;;4975404;28;20206;-43
2023/01/14 04:04:06;;;;;;;24.07;12.90;;;;;;;;;;4975333;28;20229;-44
2023/01/14 04:06:33;;;;;;;25.85;13.43;;;;;;;;;;4974462;28;20222;-43
2023/01/14 04:09:01;;;;;;;21.85;12.50;;;;;;;;;;4974403;28;20237;-43
2023/01/14 04:11:28;;;;;;;29.87;13.43;;;;;;;;;;4975239;28;20203;-46
2023/01/14 04:16:41;;;;;;;27.83;13.07;;;;;;;;;;4978997;28;20206;-43
2023/01/14 04:19:08;;;;;;;33.63;20.97;;;;;;;;;;4978868;28;20342;-43
2023/01/14 04:21:35;;;;;;;22.57;13.63;;;;;;;;;;4978752;28;20203;-44
2023/01/14 04:24:02;;;;;;;20.13;11.57;;;;;;;;;;4978951;28;20249;-46
2023/01/14 04:26:29;;;;;;;24.67;12.52;;;;;;;;;;4978860;28;20203;-44
2023/01/14 04:28:56;;;;;;;19.23;11.93;;;;;;;;;;4978949;28;20202;-43
2023/01/14 04:31:27;;;;;;;20.02;12.07;;;;;;;;;;4978933;28;20195;-43
2023/01/14 04:33:53;;;;;;;22.57;12.10;;;;;;;;;;4978560;28;20268;-44
2023/01/14 04:36:21;;;;;;;23.45;12.55;;;;;;;;;;4978758;28;20218;-43
2023/01/14 04:38:48;;;;;;;22.27;11.80;;;;;;;;;;4978690;28;20206;-43
2023/01/14 04:44:01;;;;;;;26.55;13.00;;;;;;;;;;4978392;28;20247;-43
2023/01/14 04:46:28;;;;;;;26.93;17.10;;;;;;;;;;4978287;28;20211;-43
2023/01/14 04:48:55;;;;;;;20.20;11.97;;;;;;;;;;4977637;28;20269;-43
2023/01/14 04:51:22;;;;;;;21.03;11.70;;;;;;;;;;4978441;28;20547;-43
2023/01/14 04:53:49;;;;;;;23.42;12.82;;;;;;;;;;4978246;28;20214;-44
2023/01/14 04:56:17;;;;;;;28.75;13.30;;;;;;;;;;4978118;28;20649;-43
2023/01/14 04:58:44;;;;;;;23.20;11.93;;;;;;;;;;4978191;28;20210;-43
2023/01/14 05:01:11;;;;;;;21.87;12.90;;;;;;;;;;4978132;28;20214;-44
2023/01/14 05:03:38;;;;;;;22.43;13.03;;;;;;;;;;4978159;28;20261;-43
2023/01/14 05:06:06;;;;;;;22.80;11.83;;;;;;;;;;4978267;28;20207;-44
2023/01/14 05:08:33;;;;;;;23.00;13.47;;;;;;;;;;4978071;28;20210;-44
2023/01/14 05:11:00;;;;;;;23.47;13.23;;;;;;;;;;4978220;28;20206;-43
2023/01/14 05:13:27;;;;;;;30.00;13.40;;;;;;;;;;4977963;28;20226;-47
2023/01/14 05:15:58;;;;;;;39.60;26.33;;;;;;;;;;4978032;28;20217;-43
2023/01/14 05:18:26;;;;;;;18.50;11.83;;;;;;;;;;4977980;28;20298;-43
2023/01/14 05:20:53;;;;;;;20.53;12.30;;;;;;;;;;4978046;28;20214;-43
2023/01/14 05:23:20;;;;;;;29.30;14.17;;;;;;;;;;4977607;28;20222;-43
2023/01/14 05:25:50;;;;;;;33.97;17.67;;;;;;;;;;4976392;28;20207;-44
2023/01/14 05:28:18;;;;;;;33.10;20.37;;;;;;;;;;4977996;28;20277;-43
2023/01/14 05:30:46;;;;;;;29.37;17.10;;;;;;;;;;4977719;28;20206;-43
2023/01/14 05:33:14;;;;;;;27.77;14.10;;;;;;;;;;4977494;28;20635;-42
2023/01/14 05:35:42;;;;;;;24.57;15.03;;;;;;;;;;4977600;28;20592;-43
2023/01/14 05:38:10;;;;;;;29.27;17.43;;;;;;;;;;4977420;28;20238;-44
2023/01/14 05:40:37;;;;;;;24.33;13.53;;;;;;;;;;4977451;28;20214;-44
2023/01/14 05:45:51;;;;;;;20.20;12.90;;;;;;;;;;4977654;28;20191;-42
2023/01/14 05:48:23;;;;;;;23.03;14.47;;;;;;;;;;4977201;28;20585;-43
2023/01/14 05:50:57;;;;;;;21.53;12.00;;;;;;;;;;4977032;28;20199;-44
2023/01/14 05:53:26;;;;;;;28.03;13.17;;;;;;;;;;4977252;28;20211;-43
2023/01/14 05:55:56;;;;;;;31.20;16.33;;;;;;;;;;4977080;28;20241;-43
2023/01/14 05:58:24;;;;;;;23.57;12.97;;;;;;;;;;4977065;28;20212;-43
2023/01/14 06:06:31;;;;;;;24.43;13.03;;;;;;;;;;4976150;28;20225;-44
2023/01/14 06:09:00;;;;;;;30.93;15.33;;;;;;;;;;4975971;28;20201;-44
2023/01/14 06:11:28;;;;;;;35.43;15.23;;;;;;;;;;4976671;28;20221;-43
2023/01/14 06:13:57;;;;;;;30.30;15.57;;;;;;;;;;4976664;28;20211;-42
2023/01/14 06:16:32;;;;;;;24.87;14.00;;;;;;;;;;4976409;28;20218;-45
2023/01/14 06:18:59;;;;;;;28.83;15.43;;;;;;;;;;4976691;28;20290;-43
2023/01/14 06:21:30;;;;;;;44.10;18.37;;;;;;;;;;4976576;28;20203;-43
2023/01/14 06:23:58;;;;;;;25.67;14.40;;;;;;;;;;4976660;28;20218;-47
2023/01/14 06:26:28;;;;;;;27.87;15.23;;;;;;;;;;4976311;28;20208;-43
2023/01/14 06:29:01;;;;;;;25.90;15.27;;;;;;;;;;4976546;28;20542;-42
2023/01/14 06:31:28;;;;;;;22.27;13.50;;;;;;;;;;4970821;28;20273;-45
2023/01/14 06:33:56;;;;;;;23.03;12.93;;;;;;;;;;4956071;28;20238;-44
2023/01/14 06:36:25;;;;;;;49.37;18.80;;;;;;;;;;4982139;28;20223;-41
2023/01/14 06:38:52;;;;;;;29.00;15.90;;;;;;;;;;4975190;28;20223;-51
2023/01/14 06:41:19;;;;;;;25.20;13.23;;;;;;;;;;4975815;28;20223;-45
2023/01/14 06:43:47;;;;;;;30.73;19.53;;;;;;;;;;4975033;28;20230;-45
2023/01/14 06:46:15;;;;;;;32.00;18.00;;;;;;;;;;4975088;28;20556;-44
2023/01/14 06:48:44;;;;;;;31.47;17.53;;;;;;;;;;4975041;28;20226;-46
2023/01/14 06:51:16;;;;;;;31.80;14.07;;;;;;;;;;4975599;28;20222;-42
2023/01/14 06:53:43;;;;;;;24.47;14.00;;;;;;;;;;4975176;28;20309;-46
2023/01/14 06:56:15;;;;;;;25.87;13.80;;;;;;;;;;4975256;28;20254;-46
2023/01/14 06:58:46;;;;;;;31.97;16.60;;;;;;;;;;4975037;28;20710;-48
2023/01/14 07:01:13;;;;;;;24.53;13.93;;;;;;;;;;4975226;28;20234;-45
2023/01/14 07:03:41;;;;;;;43.87;19.17;;;;;;;;;;4975077;28;20281;-44
2023/01/14 07:06:08;;;;;;;30.43;16.30;;;;;;;;;;4975197;28;20573;-49
2023/01/14 07:08:36;;;;;;;45.30;19.50;;;;;;;;;;4974981;28;20254;-45
2023/01/14 07:11:04;;;;;;;56.43;25.30;;;;;;;;;;4975399;28;20297;-46
2023/01/14 07:13:31;;;;;;;47.60;28.07;;;;;;;;;;4975301;28;20234;-46
2023/01/14 07:15:59;;;;;;;31.07;16.90;;;;;;;;;;4974623;28;20683;-50
2023/01/14 07:18:26;;;;;;;30.27;15.30;;;;;;;;;;4974804;28;20238;-44
2023/01/14 07:20:58;;;;;;;31.83;15.67;;;;;;;;;;4974745;28;20226;-46
2023/01/14 07:23:25;;;;;;;24.80;15.40;;;;;;;;;;4975029;28;20690;-44
2023/01/14 07:25:55;;;;;;;23.87;14.40;;;;;;;;;;4975026;28;20238;-46
2023/01/14 07:28:27;;;;;;;27.97;15.03;;;;;;;;;;4974752;28;20255;-45
2023/01/14 07:30:56;;;;;;;22.27;14.00;;;;;;;;;;4974151;28;20236;-44
2023/01/14 07:33:23;;;;;;;24.20;14.23;;;;;;;;;;4974642;28;20230;-45
2023/01/14 07:35:52;;;;;;;27.83;15.40;;;;;;;;;;4974711;28;20230;-45
2023/01/14 07:38:20;;;;;;;23.97;14.03;;;;;;;;;;4974666;28;20241;-47
2023/01/14 07:40:49;;;;;;;28.90;13.83;;;;;;;;;;4974591;28;20679;-46
2023/01/14 07:43:16;;;;;;;25.23;15.57;;;;;;;;;;4975188;28;20230;-47
2023/01/14 07:45:43;;;;;;;26.10;14.80;;;;;;;;;;4974722;28;20246;-46
2023/01/14 07:48:11;;;;;;;26.00;15.83;;;;;;;;;;4960465;28;20235;-50
2023/01/14 07:50:38;;;;;;;30.13;14.33;;;;;;;;;;4966202;28;20223;-53
2023/01/14 07:53:05;;;;;;;26.83;14.63;;;;;;;;;;4974106;28;20254;-48
2023/01/14 07:55:33;;;;;;;24.73;14.60;;;;;;;;;;4974535;28;20221;-47
2023/01/14 07:58:00;;;;;;;25.93;15.03;;;;;;;;;;4957802;28;20597;-48
2023/01/14 08:00:28;;;;;;;23.60;14.63;;;;;;;;;;4955117;28;20305;-48
2023/01/14 08:02:56;;;;;;;23.90;13.37;;;;;;;;;;4955405;28;20220;-50
2023/01/14 08:05:23;;;;;;;23.23;15.07;;;;;;;;;;4953994;28;20234;-47
2023/01/14 08:07:50;;;;;;;27.17;15.50;;;;;;;;;;4953995;28;20249;-48
2023/01/14 08:10:17;;;;;;;24.20;13.83;;;;;;;;;;4953188;28;20224;-48
2023/01/14 08:12:44;;;;;;;24.20;14.50;;;;;;;;;;4952638;28;20235;-50
2023/01/14 08:15:13;;;;;;;28.57;16.77;;;;;;;;;;4953358;28;20231;-52
2023/01/14 08:17:40;;;;;;;29.37;16.50;;;;;;;;;;4963449;28;20614;-51
2023/01/14 08:20:09;;;;;;;30.70;16.10;;;;;;;;;;4973051;28;20227;-46
2023/01/14 08:22:37;;;;;;;28.43;16.20;;;;;;;;;;4972271;28;20237;-48
2023/01/14 08:25:05;;;;;;;28.77;15.90;;;;;;;;;;4960874;28;20257;-48
2023/01/14 08:27:33;;;;;;;36.77;16.30;;;;;;;;;;4967545;28;20690;-47
2023/01/14 08:30:00;;;;;;;25.20;15.35;;;;;;;;;;4973251;28;20223;-48
2023/01/14 08:32:27;;;;;;;26.73;14.43;;;;;;;;;;4966821;28;20223;-47
2023/01/14 08:34:55;;;;;;;28.90;15.17;;;;;;;;;;4975280;28;20211;-47
2023/01/14 08:37:22;;;;;;;28.10;16.57;;;;;;;;;;4966574;28;20200;-47
2023/01/14 08:39:50;;;;;;;43.13;18.93;;;;;;;;;;4955970;28;20211;-52
2023/01/14 08:42:17;;;;;;;41.43;19.17;;;;;;;;;;4965094;28;20269;-46
2023/01/14 08:44:44;;;;;;;35.63;17.97;;;;;;;;;;4975247;28;20235;-47
2023/01/14 08:47:11;;;;;;;28.30;16.10;;;;;;;;;;4974982;28;20334;-47
2023/01/14 08:49:38;;;;;;;26.93;15.23;;;;;;;;;;4975413;28;20542;-49
2023/01/14 08:52:05;;;;;;;29.27;15.97;;;;;;;;;;4974899;28;20198;-46
2023/01/14 08:54:33;;;;;;;31.53;16.13;;;;;;;;;;4974695;28;20225;-46
2023/01/14 08:57:01;;;;;;;33.13;15.90;;;;;;;;;;4974516;28;20230;-46
2023/01/14 08:59:28;;;;;;;27.97;14.90;;;;;;;;;;4963586;28;20204;-46
2023/01/14 09:01:55;;;;;;;28.93;14.23;;;;;;;;;;4969055;28;20199;-46
2023/01/14 09:04:24;;;;;;;23.53;13.77;;;;;;;;;;4978658;28;20207;-47
2023/01/14 09:18:03;;;;;;;23.03;13.30;;;;;;;;;;4959199;28;20196;-48
2023/01/14 09:20:32;;;;;;;23.40;12.20;;;;;;;;;;4958235;29;20216;-48
2023/01/14 09:23:01;;;;;;;24.73;11.80;;;;;;;;;;4959108;28;20203;-46
2023/01/14 09:25:29;;;;;;;23.10;11.47;;;;;;;;;;4959002;28;20608;-48
2023/01/14 09:27:55;;;;;;;19.23;9.70;;;;;;;;;;4958784;28;20261;-47
2023/01/14 09:30:23;;;;;;;18.93;9.93;;;;;;;;;;4958724;28;20207;-48
2023/01/14 09:32:50;;;;;;;17.33;9.93;;;;;;;;;;4958440;28;20204;-49
2023/01/14 09:35:18;;;;;;;19.23;10.40;;;;;;;;;;4956954;28;20285;-47
2023/01/14 09:37:45;;;;;;;19.87;9.20;;;;;;;;;;4957154;28;20348;-50
2023/01/14 09:40:13;;;;;;;23.10;11.55;;;;;;;;;;4957832;28;20266;-47
2023/01/14 09:42:42;;;;;;;23.73;10.93;;;;;;;;;;4958337;28;20296;-47
2023/01/14 09:45:22;;;;;;;24.50;9.80;;;;;;;;;;4957738;28;20228;-47
2023/01/14 09:47:50;;;;;;;21.23;12.23;;;;;;;;;;4967761;28;20195;-50
2023/01/14 09:50:21;;;;;;;18.20;8.87;;;;;;;;;;4977869;28;20207;-47
2023/01/14 09:53:17;;;;;;;17.47;8.93;;;;;;;;;;4972921;28;20211;-46
2023/01/14 09:55:50;;;;;;;27.97;11.00;;;;;;;;;;4956671;29;20243;-47
2023/01/14 09:58:21;;;;;;;20.30;9.18;;;;;;;;;;4971298;28;20642;-46
2023/01/14 10:00:48;;;;;;;14.77;8.30;;;;;;;;;;4977446;28;20195;-47
2023/01/14 10:03:18;;;;;;;15.52;8.50;;;;;;;;;;4971813;28;20207;-47
2023/01/14 10:05:52;;;;;;;21.17;9.90;;;;;;;;;;4957336;29;20235;-48
2023/01/14 10:08:20;;;;;;;23.33;10.15;;;;;;;;;;4956960;29;20196;-48
2023/01/14 10:10:47;;;;;;;15.07;9.80;;;;;;;;;;4960579;28;20250;-49
2023/01/14 10:13:22;;;;;;;18.43;9.43;;;;;;;;;;4975319;28;20248;-49
2023/01/14 10:15:53;;;;;;;19.20;9.00;;;;;;;;;;4976834;28;20238;-46
2023/01/14 10:18:27;;;;;;;15.20;9.40;;;;;;;;;;4975438;28;20218;-46
2023/01/14 10:21:00;;;;;;;16.13;9.23;;;;;;;;;;4973392;28;20234;-49
2023/01/14 10:23:40;;;;;;;16.80;9.40;;;;;;;;;;4959719;28;20690;-46
2023/01/14 10:26:15;;;;;;;17.80;8.87;;;;;;;;;;4973389;28;20304;-46
2023/01/14 10:28:45;;;;;;;30.67;12.07;;;;;;;;;;4976173;28;20226;-48
2023/01/14 10:31:17;;;;;;;22.10;10.80;;;;;;;;;;4976398;28;20226;-47
2023/01/14 10:33:45;;;;;;;19.60;9.87;;;;;;;;;;4976193;28;20237;-48
2023/01/14 10:36:19;;;;;;;18.97;9.20;;;;;;;;;;4975628;28;20289;-50
2023/01/14 10:38:46;;;;;;;16.50;9.27;;;;;;;;;;4975164;28;20241;-47
2023/01/14 10:41:14;;;;;;;17.37;9.23;;;;;;;;;;4964995;28;20227;-47
2023/01/14 10:43:52;;;;;;;15.07;8.40;;;;;;;;;;4972382;28;20552;-44
2023/01/14 10:46:21;;;;;;;16.90;8.45;;;;;;;;;;4975140;28;20758;-45
2023/01/14 10:49:15;;;;;;;18.67;8.97;;;;;;;;;;4972276;28;20305;-46
2023/01/14 10:51:47;;;;;;;15.52;8.68;;;;;;;;;;4974961;28;20234;-47
2023/01/14 10:54:23;;;;;;;18.13;9.35;;;;;;;;;;4957379;28;20711;-49
2023/01/14 10:56:56;;;;;;;28.40;12.20;;;;;;;;;;4969557;28;20246;-46
2023/01/14 10:59:48;;;;;;;16.70;8.67;;;;;;;;;;4974903;28;20301;-47
2023/01/14 11:02:30;;;;;;;18.73;7.70;;;;;;;;;;4974713;28;20598;-46
2023/01/14 11:04:58;;;;;;;14.70;8.23;;;;;;;;;;4975771;28;20231;-46
2023/01/14 11:07:29;;;;;;;16.67;8.55;;;;;;;;;;4973930;28;20237;-46
2023/01/14 11:09:59;;;;;;;17.80;9.20;;;;;;;;;;4975079;28;20237;-46
2023/01/14 11:12:29;;;;;;;19.45;10.35;;;;;;;;;;4974253;28;20231;-45
2023/01/14 11:14:57;;;;;;;18.52;10.35;;;;;;;;;;4975627;28;20277;-47
2023/01/14 11:17:25;;;;;;;18.65;9.30;;;;;;;;;;4974169;28;20652;-49
2023/01/14 11:20:20;;;;;;;19.45;9.55;;;;;;;;;;4975456;28;20235;-46
2023/01/14 11:23:00;;;;;;;23.17;9.73;;;;;;;;;;4974761;28;20230;-46
2023/01/14 11:25:28;;;;;;;18.23;9.07;;;;;;;;;;4970520;28;20227;-46
2023/01/14 11:27:56;;;;;;;19.65;8.73;;;;;;;;;;4958018;28;20245;-46
2023/01/14 11:30:24;;;;;;;18.77;8.87;;;;;;;;;;4968193;28;20307;-47
2023/01/14 11:32:52;;;;;;;19.38;8.68;;;;;;;;;;4964908;28;20246;-47
2023/01/14 11:35:39;;;;;;;16.97;9.30;;;;;;;;;;4973830;28;20226;-48
2023/01/14 11:38:13;;;;;;;17.92;10.20;;;;;;;;;;4974080;28;20229;-47
2023/01/14 11:43:26;;;;;;;17.13;9.00;;;;;;;;;;4966045;28;20559;-48
2023/01/14 11:46:15;;;;;;;23.42;9.73;;;;;;;;;;4966873;28;20239;-46
2023/01/14 11:48:42;;;;;;;50.10;32.40;;;;;;;;;;4964200;28;20239;-46
2023/01/14 11:51:20;;;;;;;26.13;15.82;;;;;;;;;;4963128;28;20222;-46
2023/01/14 11:53:50;;;;;;;35.13;19.77;;;;;;;;;;4975481;28;20210;-45
2023/01/14 11:56:36;;;;;;;19.60;12.88;;;;;;;;;;4975722;28;20323;-45
2023/01/14 11:59:25;;;;;;;20.33;11.65;;;;;;;;;;4962701;28;20187;-47
2023/01/14 12:01:57;;;;;;;18.83;15.20;;;;;;;;;;4956128;28;20200;-49
2023/01/14 12:04:32;;;;;;;471.30;175.20;;;;;;;;;;4953424;28;20637;-50
2023/01/14 12:07:07;;;;;;;221.38;104.28;;;;;;;;;;4955602;28;20215;-50
2023/01/14 12:09:56;;;;;;;95.25;49.47;;;;;;;;;;4954809;28;20199;-45
2023/01/14 12:12:29;;;;;;;137.45;65.72;;;;;;;;;;4955355;28;20195;-47
2023/01/14 12:17:56;;;;;;;18.98;10.80;;;;;;;;;;4959083;28;20202;-47
2023/01/14 12:20:26;;;;;;;21.33;9.50;;;;;;;;;;4975176;28;20211;-48
2023/01/14 12:23:01;;;;;;;22.27;12.75;;;;;;;;;;4975530;28;20651;-48
2023/01/14 12:25:48;;;;;;;29.35;17.67;;;;;;;;;;4973094;28;20563;-48
2023/01/14 12:28:39;;;;;;;36.27;18.67;;;;;;;;;;4988985;28;20226;-48
2023/01/14 12:31:21;;;;;;;31.83;20.60;;;;;;;;;;4972343;28;20218;-51
2023/01/14 12:33:58;;;;;;;48.87;28.30;;;;;;;;;;4973493;28;20215;-50
2023/01/14 12:36:33;;;;;;;24.27;14.23;;;;;;;;;;4976800;28;20222;-45
2023/01/14 12:47:42;;;;;;;43.83;29.05;;;;;;;;;;4991064;28;20233;-49
2023/01/14 12:50:12;;;;;;;33.75;25.58;;;;;;;;;;4978092;28;20219;-49
2023/01/14 12:52:47;;;;;;;30.90;20.30;;;;;;;;;;4959326;28;20231;-51
2023/01/14 12:55:33;;;;;;;29.80;20.10;;;;;;;;;;4977183;28;20238;-48
2023/01/14 12:58:02;;;;;;;25.55;15.80;;;;;;;;;;4973724;28;20244;-46
2023/01/14 13:00:38;;;;;;;28.13;17.75;;;;;;;;;;4977195;28;20223;-50
2023/01/14 13:03:08;;;;;;;21.40;13.90;;;;;;;;;;4976290;28;20241;-49
2023/01/14 13:05:40;;;;;;;22.45;12.48;;;;;;;;;;4958120;28;20232;-48
2023/01/14 13:08:29;;;;;;;27.52;18.17;;;;;;;;;;4957873;29;20222;-48
2023/01/14 13:11:06;;;;;;;31.13;20.70;;;;;;;;;;4973329;28;20227;-49
2023/01/14 13:13:36;;;;;;;32.40;20.83;;;;;;;;;;4958743;28;20234;-51
2023/01/14 13:16:44;;;;;;;46.42;26.63;;;;;;;;;;4958271;28;20700;-54
2023/01/14 13:19:48;;;;;;;39.50;22.10;;;;;;;;;;4956764;29;20673;-50
2023/01/14 13:22:37;;;;;;;49.67;23.80;;;;;;;;;;4957141;28;20234;-50
2023/01/14 13:25:05;;;;;;;32.97;18.35;;;;;;;;;;4958281;28;20699;-50
2023/01/14 13:27:40;;;;;;;32.08;17.60;;;;;;;;;;4962472;28;20722;-55
2023/01/14 13:30:16;;;;;;;28.33;13.27;;;;;;;;;;4968585;28;20218;-47
2023/01/14 13:32:59;;;;;;;43.97;18.35;;;;;;;;;;4977212;28;20603;-49
2023/01/14 13:35:28;;;;;;;51.53;21.48;;;;;;;;;;4976260;28;20230;-49
2023/01/14 13:37:56;;;;;;;38.25;18.17;;;;;;;;;;4977222;28;20281;-48
2023/01/14 13:40:26;;;;;;;41.65;18.90;;;;;;;;;;4976066;28;20222;-47
2023/01/14 13:43:15;;;;;;;37.25;17.15;;;;;;;;;;4975399;28;20231;-49
2023/01/14 13:45:51;;;;;;;40.25;17.60;;;;;;;;;;4974571;28;20230;-52
2023/01/14 13:48:22;;;;;;;49.78;21.23;;;;;;;;;;4975552;28;20675;-57
2023/01/14 13:50:49;;;;;;;35.17;15.20;;;;;;;;;;4976305;28;20293;-48
2023/01/14 13:53:16;;;;;;;26.13;11.75;;;;;;;;;;4977056;28;20238;-49
2023/01/14 13:55:56;;;;;;;33.13;14.30;;;;;;;;;;4976544;28;20247;-47
2023/01/14 13:58:32;;;;;;;37.78;15.68;;;;;;;;;;4976905;28;20256;-48
2023/01/14 14:01:26;;;;;;;41.10;17.77;;;;;;;;;;4976599;28;20611;-50
2023/01/14 14:03:55;;;;;;;34.65;15.73;;;;;;;;;;4962603;28;20251;-51
2023/01/14 14:06:22;;;;;;;31.15;15.30;;;;;;;;;;4955341;28;20737;-51
2023/01/14 14:09:15;;;;;;;23.25;11.38;;;;;;;;;;4976699;28;20219;-50
2023/01/14 14:15:32;;;;;;;40.25;16.55;;;;;;;;;;4976819;28;20321;-49
2023/01/14 14:18:01;;;;;;;46.63;17.25;;;;;;;;;;4972199;28;20239;-49
2023/01/14 14:20:40;;;;;;;46.67;17.50;;;;;;;;;;4972916;28;20241;-50
2023/01/14 14:23:18;;;;;;;52.38;17.23;;;;;;;;;;4962542;28;20289;-47
2023/01/14 14:25:45;;;;;;;35.85;12.88;;;;;;;;;;4963991;28;20612;-47
2023/01/14 14:28:17;;;;;;;32.22;12.20;;;;;;;;;;4970442;28;20281;-46
2023/01/14 14:30:48;;;;;;;35.75;14.32;;;;;;;;;;4959185;28;20698;-47
2023/01/14 14:33:58;;;;;;;43.77;15.50;;;;;;;;;;4975316;28;20579;-53
2023/01/14 14:36:27;;;;;;;39.35;13.95;;;;;;;;;;4954830;29;20238;-47
2023/01/14 14:38:55;;;;;;;48.53;15.87;;;;;;;;;;4954205;29;20254;-46
2023/01/14 14:41:31;;;;;;;48.67;14.93;;;;;;;;;;4954312;29;20286;-46
2023/01/14 14:44:00;;;;;;;46.53;14.23;;;;;;;;;;4953811;29;20234;-47
2023/01/14 14:46:27;;;;;;;40.88;13.15;;;;;;;;;;4954656;29;20227;-47
2023/01/14 14:48:55;;;;;;;28.27;10.33;;;;;;;;;;4953781;29;20664;-48
2023/01/14 14:51:27;;;;;;;20.57;8.33;;;;;;;;;;4954051;29;20238;-48
2023/01/14 14:53:56;;;;;;;22.43;9.00;;;;;;;;;;4954102;29;20219;-48
2023/01/14 14:56:27;;;;;;;28.37;9.97;;;;;;;;;;4953781;28;20278;-47
2023/01/14 14:58:56;;;;;;;23.20;11.73;;;;;;;;;;4953440;29;20223;-47
2023/01/14 15:01:35;;;;;;;36.70;13.77;;;;;;;;;;4954139;29;20263;-48
2023/01/14 15:04:04;;;;;;;19.23;9.63;;;;;;;;;;4953478;29;20281;-50
2023/01/14 15:06:34;;;;;;;23.50;9.70;;;;;;;;;;4954296;29;20231;-50
2023/01/14 15:09:03;;;;;;;19.27;9.67;;;;;;;;;;4953906;29;20240;-47
2023/01/14 15:11:34;;;;;;;39.30;14.20;;;;;;;;;;4961391;28;20306;-48
2023/01/14 15:14:02;;;;;;;33.53;12.67;;;;;;;;;;4965912;28;20223;-47
2023/01/14 15:16:33;;;;;;;26.80;10.37;;;;;;;;;;4974443;28;20305;-47
2023/01/14 15:19:00;;;;;;;29.20;12.60;;;;;;;;;;4970026;28;20328;-49
2023/01/14 15:21:33;;;;;;;34.37;13.57;;;;;;;;;;4964679;28;20242;-47
2023/01/14 15:24:09;;;;;;;26.03;13.30;;;;;;;;;;4969473;28;20258;-48
2023/01/14 15:26:37;;;;;;;32.10;15.20;;;;;;;;;;4959319;28;20300;-50
2023/01/14 15:29:04;;;;;;;27.53;12.40;;;;;;;;;;4967726;28;20703;-49
2023/01/14 15:31:32;;;;;;;24.73;12.20;;;;;;;;;;4965064;28;20329;-48
2023/01/14 15:34:16;;;;;;;32.40;18.50;;;;;;;;;;4959497;28;20220;-48